createdAt,value
2017-10-31T00:01:49.869Z,99071.48
2017-10-31T00:04:18.140Z,99079.88
2017-10-31T00:06:47.173Z,99090.05
2017-10-31T00:09:15.456Z,99083.89
2017-10-31T00:11:44.500Z,99081.23
2017-10-31T00:14:12.820Z,99079.22
2017-10-31T00:16:42.508Z,99081.94
2017-10-31T00:19:10.785Z,99080.55
2017-10-31T00:21:39.065Z,99077.91
2017-10-31T00:24:07.341Z,99072.72
2017-10-31T00:26:35.609Z,99067.89
2017-10-31T00:29:03.885Z,99070.45
2017-10-31T00:31:32.168Z,99071.14
2017-10-31T00:34:00.449Z,99074.31
2017-10-31T00:36:28.738Z,99067.33
2017-10-31T00:38:57.027Z,99069.28
2017-10-31T00:41:25.310Z,99068.58
2017-10-31T00:43:54.913Z,99066.72
2017-10-31T00:46:23.189Z,99071.73
2017-10-31T00:48:52.232Z,99067.96
2017-10-31T00:51:20.504Z,99064.98
2017-10-31T00:53:48.780Z,99063.02
2017-10-31T00:56:17.067Z,99065.42
2017-10-31T00:58:45.354Z,99069.38
2017-10-31T01:01:13.620Z,99064.75
2017-10-31T01:03:41.891Z,99072.56
2017-10-31T01:06:10.164Z,99068.30
2017-10-31T01:08:38.431Z,99066.00
2017-10-31T01:11:06.707Z,99066.03
2017-10-31T01:13:34.991Z,99070.61
2017-10-31T01:16:03.263Z,99061.92
2017-10-31T01:18:31.538Z,99066.20
2017-10-31T01:20:59.808Z,99063.20
2017-10-31T01:23:28.089Z,99068.59
2017-10-31T01:25:56.383Z,99066.47
2017-10-31T01:28:24.662Z,99064.97
2017-10-31T01:30:52.937Z,99061.19
2017-10-31T01:33:21.213Z,99060.75
2017-10-31T01:35:49.503Z,99059.52
2017-10-31T01:38:17.773Z,99056.64
2017-10-31T01:40:46.049Z,99060.93
2017-10-31T01:43:14.324Z,99048.63
2017-10-31T01:45:42.600Z,99053.73
2017-10-31T01:48:10.867Z,99050.22
2017-10-31T01:50:39.140Z,99043.34
2017-10-31T01:53:07.442Z,99052.12
2017-10-31T01:55:35.707Z,99054.80
2017-10-31T01:58:03.991Z,99053.06
2017-10-31T02:00:32.262Z,99054.39
2017-10-31T02:03:00.529Z,99045.23
2017-10-31T02:05:28.801Z,99048.64
2017-10-31T02:07:57.092Z,99048.55
2017-10-31T02:10:25.363Z,99042.00
2017-10-31T02:12:53.637Z,99045.22
2017-10-31T02:15:21.920Z,99040.68
2017-10-31T02:17:50.201Z,99044.19
2017-10-31T02:20:18.470Z,99044.94
2017-10-31T02:22:46.749Z,99037.30
2017-10-31T02:25:15.029Z,99034.31
2017-10-31T02:27:43.278Z,99038.31
2017-10-31T02:30:11.534Z,99038.50
2017-10-31T02:32:39.807Z,99038.00
2017-10-31T02:35:08.103Z,99045.86
2017-10-31T02:37:36.359Z,99040.55
2017-10-31T02:40:04.638Z,99042.15
2017-10-31T02:42:32.915Z,99037.86
2017-10-31T02:45:01.171Z,99033.56
2017-10-31T02:47:29.446Z,99035.89
2017-10-31T02:49:58.482Z,99039.72
2017-10-31T02:52:26.765Z,99040.91
2017-10-31T02:54:55.041Z,99042.95
2017-10-31T02:57:23.323Z,99045.30
2017-10-31T02:59:51.592Z,99034.47
2017-10-31T03:02:19.864Z,99038.52
2017-10-31T03:04:48.139Z,99037.16
2017-10-31T03:07:16.404Z,99041.83
2017-10-31T03:09:44.692Z,99045.86
2017-10-31T03:12:12.969Z,99039.30
2017-10-31T03:14:41.257Z,99043.82
2017-10-31T03:17:09.528Z,99035.80
2017-10-31T03:19:37.797Z,99042.93
2017-10-31T03:22:06.064Z,99035.80
2017-10-31T03:24:34.340Z,99035.22
2017-10-31T03:27:02.621Z,99034.56
2017-10-31T03:29:32.105Z,99035.78
2017-10-31T03:32:00.379Z,99039.44
2017-10-31T03:34:28.656Z,99035.02
2017-10-31T03:36:56.929Z,99042.50
2017-10-31T03:39:25.213Z,99041.37
2017-10-31T03:41:53.485Z,99039.94
2017-10-31T03:44:21.758Z,99043.78
2017-10-31T03:46:50.037Z,99040.19
2017-10-31T03:49:18.315Z,99045.47
2017-10-31T03:51:46.589Z,99040.81
2017-10-31T03:54:14.863Z,99042.30
2017-10-31T03:56:43.140Z,99039.88
2017-10-31T03:59:11.416Z,99042.13
2017-10-31T04:01:39.691Z,99033.05
2017-10-31T04:04:08.013Z,99025.47
2017-10-31T04:06:36.305Z,99021.77
2017-10-31T04:09:04.579Z,99020.97
2017-10-31T04:11:32.861Z,99022.16
2017-10-31T04:14:01.132Z,99022.78
2017-10-31T04:16:29.413Z,99025.00
2017-10-31T04:18:57.691Z,99022.19
2017-10-31T04:21:25.963Z,99025.13
2017-10-31T04:23:55.002Z,99025.39
2017-10-31T04:26:23.273Z,99026.41
2017-10-31T04:28:51.557Z,99018.87
2017-10-31T04:31:20.733Z,99028.73
2017-10-31T04:33:48.984Z,99018.54
2017-10-31T04:36:17.249Z,99025.32
2017-10-31T04:38:45.509Z,99021.42
2017-10-31T04:41:13.765Z,99023.98
2017-10-31T04:43:42.030Z,99029.14
2017-10-31T04:46:10.304Z,99025.83
2017-10-31T04:48:38.577Z,99020.98
2017-10-31T04:51:07.673Z,99028.05
2017-10-31T04:53:35.946Z,99030.91
2017-10-31T04:56:04.222Z,99032.70
2017-10-31T04:58:32.499Z,99038.86
2017-10-31T05:01:00.873Z,99035.70
2017-10-31T05:03:29.146Z,99036.28
2017-10-31T05:05:57.417Z,99036.80
2017-10-31T05:08:25.683Z,99031.04
2017-10-31T05:10:53.959Z,99031.77
2017-10-31T05:13:22.232Z,99027.03
2017-10-31T05:15:51.268Z,99032.63
2017-10-31T05:18:19.534Z,99027.36
2017-10-31T05:20:47.805Z,99025.16
2017-10-31T05:23:16.080Z,99024.16
2017-10-31T05:25:44.356Z,99021.08
2017-10-31T05:28:12.636Z,99016.98
2017-10-31T05:30:40.913Z,99019.13
2017-10-31T05:33:09.175Z,99023.28
2017-10-31T05:35:37.442Z,99032.09
2017-10-31T05:38:05.698Z,99028.59
2017-10-31T05:40:34.736Z,99027.17
2017-10-31T05:43:03.004Z,99028.59
2017-10-31T05:45:31.279Z,99023.16
2017-10-31T05:47:59.550Z,99033.29
2017-10-31T05:50:27.817Z,99023.73
2017-10-31T05:52:56.089Z,99026.56
2017-10-31T05:55:24.359Z,99033.02
2017-10-31T05:57:53.387Z,99030.27
2017-10-31T06:00:21.656Z,99033.16
2017-10-31T06:02:49.929Z,99036.56
2017-10-31T06:05:18.207Z,99037.31
2017-10-31T06:07:46.481Z,99037.50
2017-10-31T06:10:14.757Z,99040.66
2017-10-31T06:12:43.036Z,99036.20
2017-10-31T06:15:11.320Z,99036.05
2017-10-31T06:17:39.589Z,99039.54
2017-10-31T06:20:07.862Z,99045.24
2017-10-31T06:22:41.485Z,99044.70
2017-10-31T06:25:15.278Z,99045.06
2017-10-31T06:27:49.013Z,99057.95
2017-10-31T06:30:22.805Z,99054.39
2017-10-31T06:32:51.072Z,99065.36
2017-10-31T06:35:19.350Z,99069.02
2017-10-31T06:37:47.619Z,99067.91
2017-10-31T06:40:15.888Z,99070.27
2017-10-31T06:42:44.165Z,99071.40
2017-10-31T06:45:12.434Z,99065.36
2017-10-31T06:47:40.706Z,99067.67
2017-10-31T06:50:08.980Z,99064.45
2017-10-31T06:52:37.260Z,99068.94
2017-10-31T06:55:05.540Z,99067.06
2017-10-31T06:57:33.816Z,99067.48
2017-10-31T07:00:02.096Z,99070.38
2017-10-31T07:02:30.369Z,99067.80
2017-10-31T07:04:58.641Z,99071.70
2017-10-31T07:07:26.919Z,99071.13
2017-10-31T07:09:55.188Z,99074.52
2017-10-31T07:12:23.464Z,99066.15
2017-10-31T07:14:51.768Z,99070.34
2017-10-31T07:17:20.048Z,99071.20
2017-10-31T07:19:48.320Z,99067.55
2017-10-31T07:22:16.596Z,99068.30
2017-10-31T07:24:44.890Z,99070.30
2017-10-31T07:27:13.160Z,99064.40
2017-10-31T07:29:41.440Z,99061.75
2017-10-31T07:32:09.729Z,99062.38
2017-10-31T07:34:37.996Z,99063.92
2017-10-31T07:37:06.276Z,99069.77
2017-10-31T07:39:34.621Z,99063.49
2017-10-31T07:42:02.917Z,99053.43
2017-10-31T07:44:31.191Z,99054.89
2017-10-31T07:46:59.460Z,99050.28
2017-10-31T07:49:27.729Z,99052.04
2017-10-31T07:51:56.005Z,99057.08
2017-10-31T07:54:24.276Z,99057.76
2017-10-31T07:56:52.548Z,99061.50
2017-10-31T07:59:20.816Z,99058.28
2017-10-31T08:01:49.090Z,99057.62
2017-10-31T08:04:17.371Z,99063.59
2017-10-31T08:06:46.174Z,99063.23
2017-10-31T08:09:15.392Z,99064.99
2017-10-31T08:11:43.673Z,99071.73
2017-10-31T08:14:11.949Z,99074.19
2017-10-31T08:16:40.240Z,99076.95
2017-10-31T08:19:08.520Z,99071.34
2017-10-31T08:21:36.819Z,99075.61
2017-10-31T08:24:05.862Z,99077.41
2017-10-31T08:26:34.164Z,99084.39
2017-10-31T08:29:02.440Z,99081.59
2017-10-31T08:31:30.719Z,99077.69
2017-10-31T08:33:58.986Z,99081.27
2017-10-31T08:36:27.247Z,99074.00
2017-10-31T08:38:56.281Z,99080.31
2017-10-31T08:41:24.559Z,99078.11
2017-10-31T08:43:53.591Z,99077.55
2017-10-31T08:46:21.864Z,99088.39
2017-10-31T08:48:50.145Z,99082.43
2017-10-31T08:51:18.419Z,99083.64
2017-10-31T08:53:46.695Z,99078.09
2017-10-31T08:56:14.974Z,99080.38
2017-10-31T08:58:43.297Z,99084.49
2017-10-31T09:01:11.576Z,99087.98
2017-10-31T09:03:39.855Z,99085.50
2017-10-31T09:06:08.892Z,99081.05
2017-10-31T09:08:37.169Z,99081.00
2017-10-31T09:11:05.444Z,99084.75
2017-10-31T09:13:33.724Z,99084.52
2017-10-31T09:16:01.996Z,99089.85
2017-10-31T09:18:30.299Z,99085.84
2017-10-31T09:20:58.579Z,99078.20
2017-10-31T09:23:26.858Z,99079.41
2017-10-31T09:25:55.139Z,99083.31
2017-10-31T09:28:23.421Z,99079.41
2017-10-31T09:30:51.707Z,99084.79
2017-10-31T09:33:20.748Z,99073.16
2017-10-31T09:35:49.023Z,99069.69
2017-10-31T09:38:17.296Z,99064.53
2017-10-31T09:40:45.580Z,99068.07
2017-10-31T09:43:13.861Z,99068.36
2017-10-31T09:45:42.175Z,99075.05
2017-10-31T09:48:10.463Z,99059.23
2017-10-31T09:50:38.735Z,99063.41
2017-10-31T09:53:07.763Z,99062.38
2017-10-31T09:55:36.038Z,99062.68
2017-10-31T09:58:04.314Z,99066.91
2017-10-31T10:00:32.593Z,99067.26
2017-10-31T10:03:00.868Z,99061.42
2017-10-31T10:05:29.146Z,99059.22
2017-10-31T10:07:57.423Z,99057.66
2017-10-31T10:10:25.697Z,99064.27
2017-10-31T10:12:53.972Z,99065.55
2017-10-31T10:15:22.248Z,99058.10
2017-10-31T10:17:50.523Z,99061.47
2017-10-31T10:20:18.801Z,99051.88
2017-10-31T10:22:47.096Z,99050.48
2017-10-31T10:25:15.364Z,99050.53
2017-10-31T10:27:43.671Z,99047.72
2017-10-31T10:30:11.944Z,99055.48
2017-10-31T10:32:40.228Z,99052.03
2017-10-31T10:35:08.501Z,99054.53
2017-10-31T10:37:36.775Z,99053.84
2017-10-31T10:40:05.037Z,99050.85
2017-10-31T10:42:33.308Z,99039.70
2017-10-31T10:45:01.583Z,99039.38
2017-10-31T10:47:29.877Z,99030.48
2017-10-31T10:49:58.156Z,99030.36
2017-10-31T10:52:26.453Z,99027.71
2017-10-31T10:54:54.771Z,99013.77
2017-10-31T10:57:23.137Z,99010.03
2017-10-31T10:59:52.204Z,99010.66
2017-10-31T11:02:20.827Z,99008.83
2017-10-31T11:04:49.114Z,99006.15
2017-10-31T11:07:18.317Z,99006.29
2017-10-31T11:09:46.602Z,99004.48
2017-10-31T11:12:14.876Z,99008.16
2017-10-31T11:14:43.148Z,99008.69
2017-10-31T11:17:11.432Z,99009.03
2017-10-31T11:19:39.705Z,99009.73
2017-10-31T11:22:07.989Z,99010.98
2017-10-31T11:24:36.256Z,99006.18
2017-10-31T11:27:04.528Z,99003.19
2017-10-31T11:29:32.805Z,99003.52
2017-10-31T11:32:01.092Z,99006.28
2017-10-31T11:34:29.369Z,98996.38
2017-10-31T11:36:57.644Z,98995.89
2017-10-31T11:39:25.912Z,98987.97
2017-10-31T11:41:54.180Z,98995.46
2017-10-31T11:44:22.456Z,98996.70
2017-10-31T11:46:50.740Z,98984.48
2017-10-31T11:49:19.124Z,98980.53
2017-10-31T11:51:47.452Z,98983.81
2017-10-31T11:54:16.493Z,98981.11
2017-10-31T11:56:44.772Z,98972.91
2017-10-31T11:59:13.056Z,98965.82
2017-10-31T12:01:41.993Z,98964.67
2017-10-31T12:04:10.300Z,98963.18
2017-10-31T12:06:38.584Z,98962.17
2017-10-31T12:09:06.876Z,98962.53
2017-10-31T12:11:35.162Z,98957.09
2017-10-31T12:14:03.452Z,98946.88
2017-10-31T12:16:31.737Z,98948.79
2017-10-31T12:19:00.018Z,98950.03
2017-10-31T12:21:29.072Z,98941.30
2017-10-31T12:23:58.013Z,98938.80
2017-10-31T12:26:26.393Z,98937.27
2017-10-31T12:28:54.672Z,98934.25
2017-10-31T12:31:22.960Z,98932.54
2017-10-31T12:33:51.235Z,98933.78
2017-10-31T12:36:19.524Z,98939.91
2017-10-31T12:38:47.815Z,98940.77
2017-10-31T12:41:16.101Z,98945.72
2017-10-31T12:43:44.837Z,98948.97
2017-10-31T12:46:13.113Z,98945.89
2017-10-31T12:48:41.389Z,98942.16
2017-10-31T12:51:09.666Z,98947.51
2017-10-31T12:53:37.941Z,98948.83
2017-10-31T12:56:06.213Z,98952.63
2017-10-31T12:58:34.528Z,98947.17
2017-10-31T13:01:02.801Z,98948.83
2017-10-31T13:03:31.082Z,98948.89
2017-10-31T13:05:59.354Z,98943.86
2017-10-31T13:08:27.675Z,98940.64
2017-10-31T13:10:55.981Z,98940.59
2017-10-31T13:13:24.255Z,98939.13
2017-10-31T13:15:52.618Z,98941.30
2017-10-31T13:18:21.102Z,98940.92
2017-10-31T13:20:49.491Z,98939.36
2017-10-31T13:23:17.785Z,98936.33
2017-10-31T13:25:46.058Z,98937.27
2017-10-31T13:28:14.669Z,98935.52
2017-10-31T13:30:43.314Z,98935.78
2017-10-31T13:33:12.258Z,98940.39
2017-10-31T13:35:42.562Z,98932.36
2017-10-31T13:38:12.399Z,98928.41
2017-10-31T13:40:42.385Z,98924.60
2017-10-31T13:43:11.761Z,98925.33
2017-10-31T13:45:40.354Z,98917.56
2017-10-31T13:48:09.725Z,98916.28
2017-10-31T13:50:38.696Z,98923.06
2017-10-31T13:53:07.062Z,98920.69
2017-10-31T13:55:35.346Z,98920.89
2017-10-31T13:58:03.677Z,98923.01
2017-10-31T14:00:32.290Z,98918.08
2017-10-31T14:03:00.902Z,98918.94
2017-10-31T14:05:29.205Z,98913.72
2017-10-31T14:07:57.792Z,98912.35
2017-10-31T14:10:26.684Z,98903.87
2017-10-31T14:12:55.246Z,98899.51
2017-10-31T14:15:23.583Z,98896.64
2017-10-31T14:17:51.966Z,98903.69
2017-10-31T14:20:20.631Z,98901.23
2017-10-31T14:22:49.027Z,98891.80
2017-10-31T14:25:17.296Z,98894.76
2017-10-31T14:27:45.601Z,98887.75
2017-10-31T14:30:13.904Z,98889.92
2017-10-31T14:32:42.221Z,98886.63
2017-10-31T14:35:10.536Z,98886.78
2017-10-31T14:37:38.876Z,98889.66
2017-10-31T14:40:07.393Z,98884.11
2017-10-31T14:42:35.705Z,98876.11
2017-10-31T14:45:04.849Z,98882.66
2017-10-31T14:47:33.160Z,98876.19
2017-10-31T14:50:01.594Z,98877.50
2017-10-31T14:52:29.913Z,98882.05
2017-10-31T14:54:58.210Z,98879.49
2017-10-31T14:57:26.517Z,98873.95
2017-10-31T14:59:54.788Z,98878.05
2017-10-31T15:02:23.069Z,98876.05
2017-10-31T15:04:51.366Z,98879.45
2017-10-31T15:07:19.649Z,98879.45
2017-10-31T15:09:47.920Z,98878.56
2017-10-31T15:12:16.236Z,98876.35
2017-10-31T15:14:45.266Z,98879.77
2017-10-31T15:17:13.560Z,98880.34
2017-10-31T15:19:41.890Z,98872.70
2017-10-31T15:22:11.039Z,98876.00
2017-10-31T15:24:39.380Z,98865.06
2017-10-31T15:27:07.672Z,98865.55
2017-10-31T15:29:35.983Z,98862.73
2017-10-31T15:32:04.279Z,98860.17
2017-10-31T15:34:32.567Z,98851.63
2017-10-31T15:37:01.634Z,98851.17
2017-10-31T15:39:29.960Z,98847.00
2017-10-31T15:41:58.254Z,98854.26
2017-10-31T15:44:27.717Z,98848.67
2017-10-31T15:46:56.009Z,98854.72
2017-10-31T15:49:24.300Z,98847.83
2017-10-31T15:51:52.625Z,98845.95
2017-10-31T15:54:20.932Z,98853.57
2017-10-31T15:56:49.969Z,98853.42
2017-10-31T15:59:18.254Z,98850.86
2017-10-31T16:01:46.532Z,98850.40
2017-10-31T16:04:14.876Z,98855.91
2017-10-31T16:06:44.545Z,98851.80
2017-10-31T16:09:13.767Z,98847.98
2017-10-31T16:11:42.048Z,98849.66
2017-10-31T16:14:10.361Z,98848.30
2017-10-31T16:16:38.635Z,98851.25
2017-10-31T16:19:06.927Z,98853.85
2017-10-31T16:21:35.221Z,98844.50
2017-10-31T16:24:03.492Z,98842.61
2017-10-31T16:26:31.777Z,98837.64
2017-10-31T16:29:00.057Z,98836.81
2017-10-31T16:31:28.349Z,98833.83
2017-10-31T16:33:57.404Z,98842.26
2017-10-31T16:36:25.687Z,98838.77
2017-10-31T16:38:53.969Z,98842.33
2017-10-31T16:41:23.107Z,98844.85
2017-10-31T16:43:51.468Z,98843.61
2017-10-31T16:46:20.513Z,98846.13
2017-10-31T16:48:48.793Z,98848.77
2017-10-31T16:51:17.068Z,98845.31
2017-10-31T16:53:45.827Z,98844.39
2017-10-31T16:56:14.103Z,98841.37
2017-10-31T16:58:42.379Z,98839.58
2017-10-31T17:01:10.651Z,98843.72
2017-10-31T17:03:38.927Z,98849.66
2017-10-31T17:06:07.206Z,98843.42
2017-10-31T17:08:35.485Z,98845.63
2017-10-31T17:11:03.811Z,98845.16
2017-10-31T17:13:32.090Z,98855.45
2017-10-31T17:16:00.415Z,98859.36
2017-10-31T17:18:29.036Z,98860.36
2017-10-31T17:20:57.349Z,98856.45
2017-10-31T17:23:25.629Z,98860.40
2017-10-31T17:25:54.702Z,98867.58
2017-10-31T17:28:23.078Z,98862.85
2017-10-31T17:30:51.441Z,98860.72
2017-10-31T17:33:21.455Z,98860.33
2017-10-31T17:35:49.876Z,98864.63
2017-10-31T17:38:18.294Z,98870.53
2017-10-31T17:40:46.885Z,98864.44
2017-10-31T17:43:15.575Z,98868.28
2017-10-31T17:45:44.830Z,98863.55
2017-10-31T17:48:13.525Z,98861.96
2017-10-31T17:50:42.005Z,98869.72
2017-10-31T17:53:10.533Z,98866.69
2017-10-31T17:55:38.898Z,98864.55
2017-10-31T17:58:07.307Z,98858.20
2017-10-31T18:00:36.657Z,98854.85
2017-10-31T18:03:05.304Z,98854.88
2017-10-31T18:05:33.626Z,98851.44
2017-10-31T18:08:02.134Z,98851.83
2017-10-31T18:10:31.389Z,98854.88
2017-10-31T18:13:00.496Z,98849.83
2017-10-31T18:15:30.864Z,98855.94
2017-10-31T18:18:00.613Z,98852.98
2017-10-31T18:20:29.993Z,98855.11
2017-10-31T18:22:58.998Z,98855.05
2017-10-31T18:25:28.752Z,98849.13
2017-10-31T18:27:58.505Z,98846.91
2017-10-31T18:30:28.171Z,98846.52
2017-10-31T18:32:58.775Z,98844.80
2017-10-31T18:35:29.073Z,98840.47
2017-10-31T18:37:58.901Z,98840.50
2017-10-31T18:40:29.269Z,98838.49
2017-10-31T18:42:58.851Z,98843.19
2017-10-31T18:45:28.704Z,98843.13
2017-10-31T18:47:58.508Z,98846.63
2017-10-31T18:50:29.202Z,98842.82
2017-10-31T18:52:59.020Z,98843.58
2017-10-31T18:55:28.816Z,98840.59
2017-10-31T18:57:59.009Z,98838.86
2017-10-31T19:00:28.756Z,98837.21
2017-10-31T19:02:59.237Z,98835.55
2017-10-31T19:05:29.020Z,98834.77
2017-10-31T19:07:58.796Z,98833.77
2017-10-31T19:10:29.388Z,98833.36
2017-10-31T19:12:59.219Z,98831.34
2017-10-31T19:15:29.010Z,98827.05
2017-10-31T19:17:58.844Z,98822.32
2017-10-31T19:20:28.716Z,98823.17
2017-10-31T19:22:58.568Z,98820.53
2017-10-31T19:25:28.550Z,98821.69
2017-10-31T19:27:58.454Z,98818.20
2017-10-31T19:30:28.452Z,98819.48
2017-10-31T19:32:58.303Z,98812.17
2017-10-31T19:35:28.305Z,98810.03
2017-10-31T19:37:58.112Z,98814.20
2017-10-31T19:40:27.912Z,98806.52
2017-10-31T19:42:57.651Z,98811.50
2017-10-31T19:45:27.552Z,98808.98
2017-10-31T19:47:57.308Z,98811.97
2017-10-31T19:50:28.790Z,98809.87
2017-10-31T19:52:58.645Z,98813.59
2017-10-31T19:55:28.563Z,98816.58
2017-10-31T19:57:58.439Z,98809.72
2017-10-31T20:00:28.375Z,98804.28
2017-10-31T20:02:58.245Z,98808.98
2017-10-31T20:05:28.617Z,98797.92
2017-10-31T20:07:58.469Z,98796.21
2017-10-31T20:10:29.249Z,98796.31
2017-10-31T20:12:59.123Z,98793.81
2017-10-31T20:15:28.936Z,98793.19
2017-10-31T20:18:01.030Z,98787.18
2017-10-31T20:20:30.915Z,98783.77
2017-10-31T20:23:01.531Z,98786.42
2017-10-31T20:25:31.452Z,98790.30
2017-10-31T20:28:01.363Z,98787.00
2017-10-31T20:30:31.939Z,98781.45
2017-10-31T20:33:01.848Z,98775.95
2017-10-31T20:35:31.617Z,98771.72
2017-10-31T20:38:01.822Z,98772.19
2017-10-31T20:40:32.371Z,98770.94
2017-10-31T20:43:02.199Z,98766.64
2017-10-31T20:45:32.235Z,98767.09
2017-10-31T20:48:02.008Z,98766.73
2017-10-31T20:50:31.820Z,98765.52
2017-10-31T20:53:01.774Z,98767.16
2017-10-31T20:55:31.766Z,98767.59
2017-10-31T20:58:01.526Z,98772.31
2017-10-31T21:00:31.297Z,98774.48
2017-10-31T21:03:01.131Z,98773.20
2017-10-31T21:05:30.961Z,98770.61
2017-10-31T21:08:00.822Z,98769.03
2017-10-31T21:10:30.556Z,98765.64
2017-10-31T21:13:00.465Z,98771.59
2017-10-31T21:15:30.280Z,98762.14
2017-10-31T21:18:00.763Z,98755.77
2017-10-31T21:20:30.574Z,98751.47
2017-10-31T21:23:00.383Z,98753.15
2017-10-31T21:25:30.312Z,98750.25
2017-10-31T21:28:00.188Z,98749.80
2017-10-31T21:30:30.005Z,98742.11
2017-10-31T21:32:59.797Z,98745.58
2017-10-31T21:35:29.657Z,98742.91
2017-10-31T21:37:59.422Z,98743.73
2017-10-31T21:40:29.182Z,98741.59
2017-10-31T21:42:59.025Z,98741.44
2017-10-31T21:45:28.805Z,98742.81
2017-10-31T21:47:58.531Z,98751.37
2017-10-31T21:50:27.995Z,98746.62
2017-10-31T21:52:57.181Z,98736.77
2017-10-31T21:55:26.471Z,98734.19
2017-10-31T21:57:54.824Z,98733.76
2017-10-31T22:00:23.374Z,98735.50
2017-10-31T22:02:51.840Z,98730.84
2017-10-31T22:05:20.152Z,98730.84
2017-10-31T22:07:48.480Z,98735.16
2017-10-31T22:10:16.777Z,98736.93
2017-10-31T22:12:45.069Z,98736.05
2017-10-31T22:15:13.341Z,98741.63
2017-10-31T22:17:41.616Z,98734.40
2017-10-31T22:20:09.900Z,98739.09
2017-10-31T22:22:38.178Z,98740.77
2017-10-31T22:25:06.452Z,98742.02
2017-10-31T22:27:35.502Z,98733.52
2017-10-31T22:30:03.792Z,98741.63
2017-10-31T22:32:32.069Z,98746.32
2017-10-31T22:35:00.341Z,98734.58
2017-10-31T22:37:28.608Z,98725.72
2017-10-31T22:39:56.876Z,98717.25
2017-10-31T22:42:25.180Z,98714.26
2017-10-31T22:44:53.458Z,98710.81
2017-10-31T22:47:21.820Z,98711.64
2017-10-31T22:49:50.085Z,98717.55
2017-10-31T22:52:18.364Z,98718.04
2017-10-31T22:54:46.638Z,98719.38
2017-10-31T22:57:14.911Z,98713.44
2017-10-31T22:59:43.191Z,98713.06
2017-10-31T23:02:11.460Z,98704.98
2017-10-31T23:04:39.739Z,98704.16
2017-10-31T23:07:08.012Z,98704.56
2017-10-31T23:09:36.301Z,98706.29
2017-10-31T23:12:04.581Z,98705.92
2017-10-31T23:14:32.869Z,98709.78
2017-10-31T23:17:01.156Z,98709.36
2017-10-31T23:19:29.450Z,98703.00
2017-10-31T23:21:57.735Z,98700.06
2017-10-31T23:24:26.020Z,98700.55
2017-10-31T23:26:54.304Z,98699.67
2017-10-31T23:29:22.980Z,98689.75
2017-10-31T23:31:51.258Z,98693.14
2017-10-31T23:34:19.535Z,98689.73
2017-10-31T23:36:48.848Z,98695.70
2017-10-31T23:39:18.108Z,98692.69
2017-10-31T23:41:46.389Z,98691.41
2017-10-31T23:44:14.709Z,98693.92
2017-10-31T23:46:43.796Z,98690.16
2017-10-31T23:49:12.079Z,98684.13
2017-10-31T23:51:40.361Z,98674.78
2017-10-31T23:54:08.644Z,98662.31
2017-10-31T23:56:36.925Z,98657.59
2017-10-31T23:59:05.201Z,98659.33
